Time;durP1;ratioP1;P1;durP2;ratioP2;P2;SDS_P1;SDS_P2;PMS_P1;PMS_P2;Temp;Humidity;BMP_temperature;BMP_pressure;BME280_temperature;BME280_humidity;BME280_pressure;Samples;Min_cycle;Max_cycle;Signal;HPM_P1;HPM_P2
2024/03/19 00:00:14;;;;;;;37.95;18.98;;;;;;;9.67;100.00;100572.94;5034573;28;20052;-71
2024/03/19 00:02:39;;;;;;;42.80;21.13;;;;;;;9.61;100.00;100571.69;5036565;28;20036;-71
2024/03/19 00:05:06;;;;;;;44.33;20.05;;;;;;;9.56;100.00;100566.06;5033530;28;20393;-71
2024/03/19 00:07:31;;;;;;;47.25;21.52;;;;;;;9.51;100.00;100563.06;5040750;28;21729;-71
2024/03/19 00:09:57;;;;;;;45.47;19.80;;;;;;;9.49;100.00;100571.00;5044135;28;20029;-71
2024/03/19 00:12:24;;;;;;;41.08;18.77;;;;;;;9.45;100.00;100566.22;5038655;28;20029;-71
2024/03/19 00:14:50;;;;;;;37.97;18.08;;;;;;;9.38;100.00;100568.53;5045307;28;20484;-71
2024/03/19 00:17:16;;;;;;;36.53;17.80;;;;;;;9.37;100.00;100569.50;5041947;28;20044;-71
2024/03/19 00:19:42;;;;;;;40.95;20.38;;;;;;;9.34;100.00;100582.75;5045738;28;20102;-71
2024/03/19 00:22:08;;;;;;;50.78;22.23;;;;;;;9.36;100.00;100582.63;5042553;28;20041;-71
2024/03/19 00:24:33;;;;;;;68.85;23.63;;;;;;;9.37;100.00;100586.88;5042222;28;20025;-71
2024/03/19 00:26:59;;;;;;;57.25;24.63;;;;;;;9.30;100.00;100596.97;5044398;28;20033;-71
2024/03/19 00:29:26;;;;;;;56.25;24.88;;;;;;;9.25;100.00;100599.97;5047246;28;20384;-71
2024/03/19 00:31:52;;;;;;;60.20;25.02;;;;;;;9.22;100.00;100605.44;5041749;28;20044;-71
2024/03/19 00:34:17;;;;;;;60.08;24.67;;;;;;;9.23;100.00;100601.06;5042051;28;20029;-72
2024/03/19 00:36:43;;;;;;;53.40;23.33;;;;;;;9.21;100.00;100597.78;5044799;28;20029;-71
2024/03/19 00:39:10;;;;;;;49.50;22.90;;;;;;;9.19;100.00;100594.47;5039036;28;20128;-71
2024/03/19 00:41:39;;;;;;;60.85;25.63;;;;;;;9.14;100.00;100594.06;5037679;28;20025;-71
2024/03/19 00:44:05;;;;;;;63.97;24.95;;;;;;;9.16;100.00;100595.56;5037044;28;20029;-72
2024/03/19 00:46:34;;;;;;;57.88;22.77;;;;;;;9.12;100.00;100588.16;5040498;28;20028;-72
2024/03/19 00:49:01;;;;;;;54.45;22.25;;;;;;;9.12;100.00;100595.97;5045796;28;20029;-71
2024/03/19 00:51:27;;;;;;;53.78;23.77;;;;;;;9.16;100.00;100587.75;5037944;28;20393;-71
2024/03/19 00:53:52;;;;;;;57.45;24.88;;;;;;;9.23;100.00;100585.47;5041842;28;20092;-72
2024/03/19 00:56:18;;;;;;;61.60;24.85;;;;;;;9.28;100.00;100584.13;5031681;28;20036;-71
2024/03/19 00:58:43;;;;;;;64.25;24.50;;;;;;;9.24;100.00;100581.91;5038718;28;20159;-71
2024/03/19 01:01:08;;;;;;;49.88;23.85;;;;;;;9.18;100.00;100590.22;5047928;28;20048;-71
2024/03/19 01:03:34;;;;;;;54.55;22.85;;;;;;;9.09;100.00;100578.84;5048771;28;20025;-72
2024/03/19 01:06:02;;;;;;;46.90;21.77;;;;;;;9.04;100.00;100575.00;5038587;28;20025;-71
2024/03/19 01:08:28;;;;;;;49.70;20.83;;;;;;;8.96;100.00;100571.31;5039607;28;20057;-71
2024/03/19 01:10:53;;;;;;;53.00;22.15;;;;;;;8.91;100.00;100564.84;5046531;28;20487;-71
2024/03/19 01:13:19;;;;;;;49.15;24.05;;;;;;;8.84;100.00;100561.97;5042463;28;20128;-71
2024/03/19 01:15:44;;;;;;;49.30;21.17;;;;;;;8.78;100.00;100561.66;5045490;28;20033;-71
2024/03/19 01:18:09;;;;;;;45.13;20.33;;;;;;;8.76;100.00;100566.97;5041089;28;20076;-72
2024/03/19 01:20:35;;;;;;;53.67;21.75;;;;;;;8.70;100.00;100572.69;5040756;28;20214;-71
2024/03/19 01:23:00;;;;;;;44.47;21.98;;;;;;;8.66;100.00;100576.50;5044142;28;20167;-71
2024/03/19 01:25:26;;;;;;;41.45;19.63;;;;;;;8.62;100.00;100577.69;5044857;28;21530;-71
2024/03/19 01:27:53;;;;;;;42.97;20.42;;;;;;;8.54;100.00;100580.94;5042433;28;20401;-71
2024/03/19 01:30:19;;;;;;;43.38;19.25;;;;;;;8.48;100.00;100581.47;5043215;28;20038;-71
2024/03/19 01:32:45;;;;;;;39.30;19.00;;;;;;;8.40;100.00;100578.69;5041817;28;20033;-71
2024/03/19 01:35:10;;;;;;;39.72;17.42;;;;;;;8.34;100.00;100580.97;5047735;28;20033;-71
2024/03/19 01:37:36;;;;;;;46.17;20.73;;;;;;;8.30;100.00;100581.19;5048525;28;20094;-71
2024/03/19 01:40:02;;;;;;;43.85;19.38;;;;;;;8.34;100.00;100583.56;5049997;28;20035;-71
2024/03/19 01:42:27;;;;;;;43.67;19.83;;;;;;;8.34;100.00;100583.56;5048511;28;20484;-72
2024/03/19 01:45:08;;;;;;;37.22;17.67;;;;;;;8.29;100.00;100578.72;5044257;28;20025;-71
2024/03/19 01:47:35;;;;;;;39.78;18.00;;;;;;;8.26;100.00;100578.97;5050013;28;20405;-72
2024/03/19 01:50:09;;;;;;;37.85;17.15;;;;;;;8.22;100.00;100582.78;5051774;28;20047;-71
2024/03/19 01:52:54;;;;;;;35.72;16.55;;;;;;;8.31;100.00;100582.00;5045593;28;20029;-71
2024/03/19 01:55:23;;;;;;;33.88;16.77;;;;;;;8.31;100.00;100585.44;5048719;28;20407;-71
2024/03/19 01:57:49;;;;;;;37.33;15.88;;;;;;;8.29;100.00;100582.16;5044318;28;20033;-71
2024/03/19 02:00:15;;;;;;;31.65;15.25;;;;;;;8.23;100.00;100589.63;5045812;28;20041;-71
2024/03/19 02:02:41;;;;;;;31.35;14.18;;;;;;;8.13;100.00;100584.34;5044169;28;20032;-71
2024/03/19 02:05:08;;;;;;;29.33;14.20;;;;;;;8.06;100.00;100584.97;5035323;28;20066;-72
2024/03/19 02:07:34;;;;;;;37.78;14.98;;;;;;;8.03;100.00;100599.06;5046814;28;20056;-72
2024/03/19 02:10:00;;;;;;;29.17;13.93;;;;;;;7.99;100.00;100595.06;5043267;28;20044;-71
2024/03/19 02:12:26;;;;;;;32.88;14.27;;;;;;;8.01;100.00;100598.34;5045203;28;20045;-71
2024/03/19 02:14:52;;;;;;;26.83;14.00;;;;;;;7.99;100.00;100595.06;5040591;28;20112;-72
2024/03/19 02:17:18;;;;;;;25.42;12.77;;;;;;;7.97;100.00;100590.00;5038882;28;20029;-71
2024/03/19 02:19:45;;;;;;;29.58;14.15;;;;;;;7.95;100.00;100591.06;5043511;28;20431;-71
2024/03/19 02:22:11;;;;;;;28.25;14.23;;;;;;;7.90;100.00;100593.19;5038270;28;20500;-71
2024/03/19 02:24:43;;;;;;;30.55;14.32;;;;;;;7.93;100.00;100598.16;5038825;28;20064;-72
2024/03/19 02:27:09;;;;;;;29.33;14.45;;;;;;;7.87;100.00;100596.88;5036266;28;20041;-71
2024/03/19 02:29:35;;;;;;;30.27;14.02;;;;;;;8.02;100.00;100597.41;5040415;28;20781;-71
2024/03/19 02:32:01;;;;;;;31.90;13.93;;;;;;;7.96;100.00;100596.13;5042362;28;20131;-71
2024/03/19 02:34:26;;;;;;;23.08;12.70;;;;;;;7.85;100.00;100597.94;5044099;28;20029;-71
2024/03/19 02:36:52;;;;;;;28.35;12.25;;;;;;;7.75;100.00;100604.81;5043372;28;20042;-71
2024/03/19 02:39:18;;;;;;;25.45;12.07;;;;;;;7.68;100.00;100601.03;5044075;28;20036;-71
2024/03/19 02:41:43;;;;;;;26.95;12.68;;;;;;;7.65;100.00;100596.94;5043156;28;20032;-72
2024/03/19 02:44:09;;;;;;;23.75;12.13;;;;;;;7.61;100.00;100601.53;5042646;28;20032;-72
2024/03/19 02:46:36;;;;;;;30.67;13.23;;;;;;;7.55;100.00;100604.63;5042412;28;20033;-71
2024/03/19 02:49:02;;;;;;;24.00;11.57;;;;;;;7.59;100.00;100600.00;5038571;28;20040;-71
2024/03/19 02:51:27;;;;;;;27.05;13.07;;;;;;;7.56;100.00;100593.28;5034853;28;20043;-71
2024/03/19 02:53:53;;;;;;;24.55;11.35;;;;;;;7.48;100.00;100595.69;5035592;28;20029;-71
2024/03/19 02:56:18;;;;;;;25.77;11.77;;;;;;;7.45;100.00;100598.53;5039446;28;20063;-72
2024/03/19 02:58:43;;;;;;;31.25;12.82;;;;;;;7.42;100.00;100603.13;5042389;28;20029;-71
2024/03/19 03:01:09;;;;;;;23.55;11.55;;;;;;;7.39;100.00;100608.56;5041714;28;20032;-72
2024/03/19 03:03:34;;;;;;;28.50;13.75;;;;;;;7.39;100.00;100611.97;5039691;28;20504;-71
2024/03/19 03:06:00;;;;;;;25.10;12.70;;;;;;;7.31;100.00;100609.16;5042676;28;20029;-71
2024/03/19 03:08:26;;;;;;;29.70;13.60;;;;;;;7.30;100.00;100615.28;5040939;28;20473;-71
2024/03/19 03:10:52;;;;;;;29.75;12.25;;;;;;;7.33;100.00;100618.47;5037856;28;20076;-72
2024/03/19 03:13:17;;;;;;;26.65;12.05;;;;;;;7.27;100.00;100621.53;5041239;28;20493;-72
2024/03/19 03:15:43;;;;;;;22.83;11.40;;;;;;;7.22;100.00;100628.00;5039358;28;20025;-72
2024/03/19 03:18:08;;;;;;;23.35;12.43;;;;;;;7.21;100.00;100641.91;5040709;28;20036;-71
2024/03/19 03:20:34;;;;;;;27.25;12.85;;;;;;;7.30;100.00;100643.78;5041124;28;20417;-71
2024/03/19 03:22:59;;;;;;;27.92;12.63;;;;;;;7.25;100.00;100644.16;5036891;28;20041;-71
2024/03/19 03:25:25;;;;;;;26.15;12.70;;;;;;;7.21;100.00;100647.91;5038915;28;20108;-71
2024/03/19 03:27:51;;;;;;;32.95;13.00;;;;;;;7.16;100.00;100649.22;5041486;28;20098;-71
2024/03/19 03:30:16;;;;;;;27.02;12.50;;;;;;;7.12;100.00;100642.59;5042645;28;20045;-71
2024/03/19 03:32:43;;;;;;;26.85;12.63;;;;;;;7.07;100.00;100640.41;5040588;28;20472;-71
2024/03/19 03:35:09;;;;;;;27.65;12.68;;;;;;;7.09;100.00;100648.06;5035942;28;20041;-71
2024/03/19 03:37:35;;;;;;;25.80;12.13;;;;;;;7.09;100.00;100648.84;5043001;28;20025;-71
2024/03/19 03:40:07;;;;;;;22.90;11.65;;;;;;;7.03;100.00;100653.69;5040656;28;20036;-71
2024/03/19 03:42:33;;;;;;;30.30;12.60;;;;;;;6.90;100.00;100659.81;5041577;28;20037;-72
2024/03/19 03:44:58;;;;;;;30.35;13.95;;;;;;;6.94;100.00;100661.22;5043049;28;20029;-71
2024/03/19 03:47:24;;;;;;;31.83;12.70;;;;;;;6.87;100.00;100660.03;5041768;28;20028;-71
2024/03/19 03:49:50;;;;;;;34.92;14.18;;;;;;;6.80;100.00;100658.03;5042933;28;20392;-72
2024/03/19 03:52:16;;;;;;;28.88;13.95;;;;;;;6.77;100.00;100659.06;5040344;28;20036;-71
2024/03/19 03:54:41;;;;;;;30.08;14.30;;;;;;;6.79;100.00;100661.56;5039051;28;20524;-71
2024/03/19 03:57:07;;;;;;;33.33;14.32;;;;;;;6.80;100.00;100665.78;5039708;28;20057;-71
2024/03/19 03:59:32;;;;;;;28.38;13.80;;;;;;;6.92;100.00;100670.88;5043158;28;20036;-71
2024/03/19 04:01:58;;;;;;;32.38;15.15;;;;;;;7.02;100.00;100667.59;5045080;28;20097;-71
2024/03/19 04:04:23;;;;;;;34.05;13.63;;;;;;;6.97;100.00;100666.19;5039631;28;20524;-71
2024/03/19 04:06:49;;;;;;;32.50;14.73;;;;;;;6.92;100.00;100663.09;5041636;28;20033;-71
2024/03/19 04:09:15;;;;;;;32.42;14.18;;;;;;;6.87;100.00;100665.22;5039696;28;20430;-71
2024/03/19 04:11:40;;;;;;;30.55;14.60;;;;;;;6.88;100.00;100666.88;5040415;28;20067;-72
2024/03/19 04:14:06;;;;;;;35.72;13.50;;;;;;;6.86;100.00;100668.75;5037211;28;20099;-71
2024/03/19 04:16:31;;;;;;;29.95;13.38;;;;;;;6.84;100.00;100670.63;5033292;28;20868;-72
2024/03/19 04:18:57;;;;;;;30.02;12.57;;;;;;;6.84;100.00;100672.38;5038878;28;20040;-71
2024/03/19 04:21:23;;;;;;;29.27;12.57;;;;;;;6.80;100.00;100673.56;5038205;28;20041;-71
2024/03/19 04:23:48;;;;;;;27.77;12.27;;;;;;;6.80;100.00;100682.16;5042091;28;20202;-71
2024/03/19 04:26:13;;;;;;;26.05;11.70;;;;;;;6.78;100.00;100683.22;5044699;28;20064;-72
2024/03/19 04:28:39;;;;;;;26.85;11.35;;;;;;;6.81;100.00;100676.03;5039875;28;20048;-71
2024/03/19 04:31:05;;;;;;;24.88;11.40;;;;;;;6.82;100.00;100672.50;5033383;28;20045;-71
2024/03/19 04:33:30;;;;;;;23.58;10.18;;;;;;;6.80;100.00;100676.97;5034317;28;20036;-71
2024/03/19 04:35:56;;;;;;;37.53;12.43;;;;;;;6.73;100.00;100680.13;5043534;28;20040;-71
2024/03/19 04:38:21;;;;;;;19.80;10.02;;;;;;;6.66;100.00;100682.34;5043324;28;23426;-71
2024/03/19 04:40:47;;;;;;;23.52;11.00;;;;;;;6.64;100.00;100694.59;5045757;28;20032;-71
2024/03/19 04:43:12;;;;;;;23.35;10.98;;;;;;;6.63;100.00;100695.53;5037929;28;20045;-71
2024/03/19 04:45:38;;;;;;;28.17;10.43;;;;;;;6.61;100.00;100698.25;5038533;28;20115;-71
2024/03/19 04:48:03;;;;;;;23.42;9.85;;;;;;;6.59;100.00;100702.72;5040071;28;20029;-71
2024/03/19 04:50:30;;;;;;;23.70;9.95;;;;;;;6.56;100.00;100702.13;5044070;28;20082;-71
2024/03/19 04:52:55;;;;;;;16.17;8.95;;;;;;;6.57;100.00;100704.59;5038182;28;20026;-71
2024/03/19 04:55:21;;;;;;;20.98;9.50;;;;;;;6.48;100.00;100715.63;5039615;28;20397;-71
2024/03/19 04:57:46;;;;;;;14.45;8.05;;;;;;;6.49;100.00;100712.09;5038748;28;20030;-71
2024/03/19 05:00:18;;;;;;;20.52;9.20;;;;;;;6.46;100.00;100716.66;5043980;28;20071;-71
2024/03/19 05:02:44;;;;;;;23.65;9.48;;;;;;;6.45;100.00;100704.66;5048758;28;20552;-71
2024/03/19 05:05:10;;;;;;;17.30;8.27;;;;;;;6.39;100.00;100711.09;5050455;28;20110;-71
2024/03/19 05:07:35;;;;;;;14.60;7.47;;;;;;;6.31;100.00;100714.25;5052845;28;20159;-71
2024/03/19 05:10:01;;;;;;;16.10;8.68;;;;;;;6.36;100.00;100706.16;5049924;28;20025;-72
2024/03/19 05:12:26;;;;;;;15.52;7.65;;;;;;;6.33;100.00;100722.72;5050879;28;20029;-71
2024/03/19 05:14:51;;;;;;;15.88;7.68;;;;;;;6.29;100.00;100718.72;5042058;28;20519;-71
2024/03/19 05:17:17;;;;;;;19.65;9.05;;;;;;;6.31;100.00;100724.59;5043503;28;20488;-71
2024/03/19 05:19:42;;;;;;;15.77;8.43;;;;;;;6.36;100.00;100726.84;5039791;28;20058;-71
2024/03/19 05:22:09;;;;;;;22.13;9.27;;;;;;;6.35;100.00;100725.22;5039451;28;20042;-71
2024/03/19 05:24:34;;;;;;;15.27;8.68;;;;;;;6.37;100.00;100732.84;5041003;28;20378;-71
2024/03/19 05:26:59;;;;;;;18.30;9.45;;;;;;;6.42;100.00;100736.78;5038246;28;20040;-71
2024/03/19 05:29:25;;;;;;;19.83;9.50;;;;;;;6.44;100.00;100729.72;5043358;28;20037;-71
2024/03/19 05:31:50;;;;;;;19.35;9.05;;;;;;;6.48;100.00;100725.97;5050759;28;20390;-71
2024/03/19 05:34:16;;;;;;;24.95;10.40;;;;;;;6.48;100.00;100732.91;5036668;28;20136;-73
2024/03/19 05:36:41;;;;;;;22.92;10.30;;;;;;;6.47;100.00;100734.69;5038272;28;20104;-72
2024/03/19 05:39:09;;;;;;;23.45;10.73;;;;;;;6.52;100.00;100730.00;5039527;28;20116;-71
2024/03/19 05:41:36;;;;;;;28.27;11.57;;;;;;;6.60;100.00;100719.91;5041048;28;20120;-71
2024/03/19 05:44:02;;;;;;;22.63;12.27;;;;;;;6.74;100.00;100721.44;5043374;28;20034;-71
2024/03/19 05:46:28;;;;;;;25.95;12.32;;;;;;;6.79;100.00;100729.72;5047055;28;20029;-71
2024/03/19 05:48:53;;;;;;;21.83;10.75;;;;;;;6.89;100.00;100733.28;5043140;28;20063;-71
2024/03/19 05:51:18;;;;;;;28.50;12.55;;;;;;;6.91;100.00;100727.97;5037378;28;20029;-72
2024/03/19 05:53:44;;;;;;;23.92;11.68;;;;;;;7.02;100.00;100735.78;5041074;28;20036;-71
2024/03/19 05:56:09;;;;;;;23.92;11.50;;;;;;;7.06;100.00;100737.19;5042047;28;20108;-70
2024/03/19 05:58:35;;;;;;;21.52;10.90;;;;;;;7.03;100.00;100741.78;5042088;28;20029;-71
2024/03/19 06:01:03;;;;;;;26.10;11.48;;;;;;;6.99;100.00;100746.38;5042564;28;20037;-70
2024/03/19 06:03:28;;;;;;;21.73;10.45;;;;;;;7.03;100.00;100754.75;5041918;28;20407;-71
2024/03/19 06:05:58;;;;;;;25.00;9.77;;;;;;;7.04;100.00;100753.81;5044111;28;20036;-71
2024/03/19 06:08:26;;;;;;;22.60;11.48;;;;;;;7.04;100.00;100759.81;5031204;28;20051;-71
2024/03/19 06:10:52;;;;;;;21.90;9.93;;;;;;;7.10;100.00;100759.31;5038631;28;20120;-71
2024/03/19 06:13:17;;;;;;;25.45;10.88;;;;;;;7.18;100.00;100759.56;5032749;28;20112;-70
2024/03/19 06:15:42;;;;;;;23.40;10.48;;;;;;;7.27;100.00;100755.47;5037074;28;20033;-70
2024/03/19 06:18:08;;;;;;;21.35;10.38;;;;;;;7.38;100.00;100765.03;5039876;28;20033;-70
2024/03/19 06:20:33;;;;;;;22.38;10.85;;;;;;;7.47;100.00;100766.91;5034937;28;20713;-70
2024/03/19 06:22:59;;;;;;;23.98;10.50;;;;;;;7.46;100.00;100768.69;5043503;28;20068;-70
2024/03/19 06:25:24;;;;;;;23.15;10.13;;;;;;;7.48;100.00;100774.59;5032997;28;20157;-70
2024/03/19 06:27:49;;;;;;;25.02;11.02;;;;;;;7.55;100.00;100772.34;5040175;28;20037;-70
2024/03/19 06:30:15;;;;;;;24.40;10.70;;;;;;;7.65;100.00;100776.69;5039239;28;20072;-70
2024/03/19 06:32:41;;;;;;;20.48;9.50;;;;;;;7.78;100.00;100783.53;5037193;28;20167;-70
2024/03/19 06:35:07;;;;;;;26.20;10.85;;;;;;;7.92;100.00;100780.69;5035698;28;20036;-70
2024/03/19 06:37:33;;;;;;;22.05;11.02;;;;;;;8.09;100.00;100787.13;5049938;28;20488;-70
2024/03/19 06:39:58;;;;;;;25.05;10.88;;;;;;;8.14;100.00;100783.25;5048824;28;20049;-70
2024/03/19 06:42:24;;;;;;;25.95;10.52;;;;;;;8.26;100.00;100777.09;5047928;28;20041;-71
2024/03/19 06:44:49;;;;;;;18.83;10.50;;;;;;;8.37;100.00;100772.84;5050744;28;20025;-71
2024/03/19 06:47:16;;;;;;;21.30;9.77;;;;;;;8.54;100.00;100775.72;5045598;28;20029;-72
2024/03/19 06:49:41;;;;;;;27.08;10.65;;;;;;;8.67;100.00;100774.72;5046156;28;20024;-71
2024/03/19 06:52:07;;;;;;;20.83;10.50;;;;;;;8.82;100.00;100773.47;5049788;28;20337;-71
2024/03/19 06:54:32;;;;;;;16.42;7.93;;;;;;;8.98;100.00;100771.25;5045444;28;20033;-71
2024/03/19 06:56:57;;;;;;;18.00;9.57;;;;;;;9.21;100.00;100771.94;5049308;28;20029;-72
2024/03/19 06:59:24;;;;;;;16.02;8.82;;;;;;;9.41;100.00;100784.13;5043840;28;20029;-71
2024/03/19 07:01:50;;;;;;;16.63;9.25;;;;;;;9.57;100.00;100781.03;5043080;28;20041;-71
2024/03/19 07:04:16;;;;;;;16.00;8.15;;;;;;;9.74;100.00;100782.19;5040801;28;20037;-71
2024/03/19 07:06:42;;;;;;;17.63;9.05;;;;;;;9.94;100.00;100770.88;5037690;28;20036;-71
2024/03/19 07:09:09;;;;;;;14.38;7.95;;;;;;;10.12;100.00;100771.88;5037992;28;20025;-71
2024/03/19 07:11:35;;;;;;;15.82;7.75;;;;;;;10.24;100.00;100780.44;5045112;28;20029;-71
2024/03/19 07:14:00;;;;;;;14.07;5.85;;;;;;;10.22;100.00;100775.38;5047766;28;20106;-71
2024/03/19 07:16:26;;;;;;;9.93;4.68;;;;;;;10.30;100.00;100777.31;5041354;28;20032;-71
2024/03/19 07:18:52;;;;;;;8.15;4.50;;;;;;;10.30;100.00;100785.94;5047032;28;20032;-69
2024/03/19 07:21:18;;;;;;;8.25;3.08;;;;;;;10.29;100.00;100775.66;5047075;28;20076;-69
2024/03/19 07:23:43;;;;;;;7.30;4.22;;;;;;;10.62;100.00;100779.66;5048745;28;20025;-69
2024/03/19 07:26:10;;;;;;;6.90;4.10;;;;;;;10.73;100.00;100783.91;5039893;28;20037;-69
2024/03/19 07:28:38;;;;;;;9.77;3.78;;;;;;;10.58;100.00;100791.28;5047633;28;20040;-70
2024/03/19 07:31:03;;;;;;;7.78;3.17;;;;;;;10.50;100.00;100791.16;5039979;28;20125;-69
2024/03/19 07:33:29;;;;;;;9.43;3.55;;;;;;;10.58;100.00;100794.72;5035827;28;20123;-69
2024/03/19 07:35:56;;;;;;;8.75;2.83;;;;;;;11.00;100.00;100798.81;5039769;28;20048;-70
2024/03/19 07:38:21;;;;;;;5.55;2.80;;;;;;;11.15;100.00;100798.25;5035248;28;20040;-69
2024/03/19 07:40:47;;;;;;;9.55;3.33;;;;;;;11.56;100.00;100793.59;5044349;28;20036;-70
2024/03/19 07:43:14;;;;;;;8.48;3.35;;;;;;;11.81;100.00;100805.22;5036392;28;20044;-70
2024/03/19 07:45:41;;;;;;;6.72;3.08;;;;;;;11.48;100.00;100803.94;5041075;28;20116;-70
2024/03/19 07:48:07;;;;;;;6.82;2.70;;;;;;;11.40;100.00;100812.47;5044835;28;20072;-70
2024/03/19 07:50:34;;;;;;;5.72;2.35;;;;;;;11.61;100.00;100800.03;5046491;28;20061;-70
2024/03/19 07:53:01;;;;;;;6.13;2.15;;;;;;;11.81;100.00;100798.22;5044244;28;20377;-70
2024/03/19 07:55:26;;;;;;;5.13;2.65;;;;;;;12.13;95.98;100804.78;5041057;28;20044;-70
2024/03/19 07:57:52;;;;;;;8.68;2.58;;;;;;;12.38;96.38;100800.63;5038858;28;20105;-70
2024/03/19 08:00:17;;;;;;;4.90;2.53;;;;;;;12.56;93.43;100801.47;5045892;28;20123;-69
2024/03/19 08:02:43;;;;;;;7.30;2.38;;;;;;;12.68;89.19;100796.84;5045351;28;20044;-70
2024/03/19 08:05:09;;;;;;;5.07;1.90;;;;;;;12.96;90.96;100801.00;5048380;28;20036;-69
2024/03/19 08:07:41;;;;;;;6.55;2.15;;;;;;;13.17;87.33;100808.53;5040154;28;20041;-70
2024/03/19 08:10:07;;;;;;;6.82;1.95;;;;;;;13.52;85.14;100805.00;5033653;28;20053;-68
2024/03/19 08:12:33;;;;;;;6.38;2.25;;;;;;;13.67;86.57;100800.81;5043756;28;20049;-69
2024/03/19 08:15:02;;;;;;;6.78;2.35;;;;;;;13.76;88.61;100805.09;5049252;28;20488;-69
2024/03/19 08:17:27;;;;;;;4.25;2.03;;;;;;;13.92;90.05;100801.72;5044279;28;20412;-69
2024/03/19 08:19:54;;;;;;;4.25;2.17;;;;;;;14.25;91.77;100808.72;5049023;28;20025;-68
2024/03/19 08:22:20;;;;;;;8.57;2.13;;;;;;;14.59;91.66;100803.41;5046071;28;20033;-69
2024/03/19 08:24:46;;;;;;;4.03;1.33;;;;;;;14.68;91.47;100808.66;5052589;28;20027;-69
2024/03/19 08:27:12;;;;;;;4.13;2.20;;;;;;;14.79;91.62;100800.47;5040427;28;20063;-69
2024/03/19 08:29:38;;;;;;;3.33;1.88;;;;;;;14.90;92.80;100803.59;5040984;28;20032;-69
2024/03/19 08:32:04;;;;;;;4.22;1.95;;;;;;;15.05;92.12;100806.38;5048796;28;20385;-69
2024/03/19 08:34:30;;;;;;;3.70;1.55;;;;;;;15.14;91.78;100815.84;5045399;28;20033;-69
2024/03/19 08:36:55;;;;;;;4.60;1.90;;;;;;;15.21;92.50;100810.75;5043759;28;20511;-69
2024/03/19 08:39:21;;;;;;;3.65;1.85;;;;;;;15.27;92.55;100815.34;5048007;28;20040;-69
2024/03/19 08:41:46;;;;;;;3.03;1.30;;;;;;;15.26;90.20;100816.34;5048622;28;20041;-68
2024/03/19 08:44:12;;;;;;;3.63;1.30;;;;;;;15.30;87.81;100817.66;5049410;28;20039;-69
2024/03/19 08:46:37;;;;;;;3.65;1.92;;;;;;;15.45;91.77;100820.41;5044505;28;20056;-68
2024/03/19 08:49:03;;;;;;;3.53;1.30;;;;;;;15.66;91.61;100814.63;5045458;28;20546;-69
2024/03/19 08:51:31;;;;;;;4.68;1.90;;;;;;;15.79;90.31;100807.84;5047724;28;20098;-69
2024/03/19 08:53:57;;;;;;;3.95;1.98;;;;;;;15.85;90.04;100809.00;5045028;28;20472;-68
2024/03/19 08:56:23;;;;;;;2.95;1.85;;;;;;;15.98;90.24;100814.53;5047425;28;20041;-69
2024/03/19 08:58:49;;;;;;;6.18;2.28;;;;;;;16.02;87.79;100815.81;5047068;28;20033;-69
2024/03/19 09:01:14;;;;;;;6.65;1.65;;;;;;;15.83;82.97;100810.97;5047983;28;20037;-68
2024/03/19 09:03:40;;;;;;;3.53;1.10;;;;;;;15.30;83.26;100814.19;5049520;28;20108;-70
2024/03/19 09:06:06;;;;;;;3.50;1.45;;;;;;;14.98;73.80;100818.50;5048711;28;20047;-69
2024/03/19 09:08:31;;;;;;;3.58;1.25;;;;;;;14.94;86.05;100818.00;5048633;28;20037;-70
2024/03/19 09:10:57;;;;;;;3.20;1.27;;;;;;;15.30;89.44;100824.69;5038957;28;20060;-70
2024/03/19 09:13:23;;;;;;;5.88;1.90;;;;;;;15.46;90.01;100817.63;5038831;28;20036;-69
2024/03/19 09:15:48;;;;;;;4.00;1.67;;;;;;;15.42;91.06;100824.19;5042666;28;20067;-70
2024/03/19 09:18:15;;;;;;;2.40;1.20;;;;;;;15.26;90.94;100821.59;5044619;28;20037;-70
2024/03/19 09:20:41;;;;;;;3.45;1.10;;;;;;;14.98;90.76;100815.88;5033642;28;20118;-71
2024/03/19 09:23:06;;;;;;;4.47;1.35;;;;;;;14.76;87.97;100822.59;5045050;28;20025;-70
2024/03/19 09:25:32;;;;;;;2.50;1.17;;;;;;;14.71;86.51;100821.44;5045034;28;20481;-69
2024/03/19 09:27:58;;;;;;;3.10;1.17;;;;;;;14.65;87.89;100825.53;5046794;28;20052;-69
2024/03/19 09:30:23;;;;;;;3.30;1.15;;;;;;;14.58;87.58;100819.31;5044726;28;20041;-69
2024/03/19 09:32:49;;;;;;;2.38;1.13;;;;;;;14.38;86.75;100826.59;5043266;28;20032;-69
2024/03/19 09:35:15;;;;;;;2.33;0.60;;;;;;;14.25;87.12;100821.81;5036287;28;20033;-69
2024/03/19 09:37:43;;;;;;;2.47;1.08;;;;;;;14.05;85.19;100827.50;5042216;28;20032;-70
2024/03/19 09:40:10;;;;;;;3.15;1.10;;;;;;;14.02;85.02;100831.25;5043821;28;20037;-69
2024/03/19 09:42:37;;;;;;;3.17;1.13;;;;;;;14.14;84.51;100823.94;5043865;28;20036;-69
2024/03/19 09:45:04;;;;;;;3.75;0.93;;;;;;;14.32;84.24;100824.63;5047452;28;20029;-69
2024/03/19 09:47:31;;;;;;;2.17;0.80;;;;;;;14.28;83.79;100833.78;5040860;28;20181;-69
2024/03/19 09:49:58;;;;;;;2.95;1.00;;;;;;;14.35;84.25;100832.16;5049594;28;20112;-69
2024/03/19 09:52:24;;;;;;;4.53;1.00;;;;;;;14.32;84.81;100832.47;5043820;28;20037;-69
2024/03/19 09:54:50;;;;;;;2.20;1.00;;;;;;;14.22;82.50;100835.22;5048914;28;20036;-69
2024/03/19 09:57:18;;;;;;;7.03;1.75;;;;;;;14.18;83.55;100833.91;5042106;28;20033;-69
2024/03/19 09:59:47;;;;;;;6.82;1.58;;;;;;;14.22;83.75;100835.22;5047164;28;20060;-69
2024/03/19 10:02:21;;;;;;;4.57;1.23;;;;;;;14.27;82.80;100825.09;5039070;28;20103;-70
2024/03/19 10:04:48;;;;;;;7.30;0.98;;;;;;;14.31;84.57;100827.41;5051258;28;20036;-69
2024/03/19 10:07:19;;;;;;;3.10;0.82;;;;;;;14.29;85.20;100825.75;5048289;28;20538;-69
2024/03/19 10:09:47;;;;;;;1.63;0.80;;;;;;;14.33;82.13;100830.69;5046867;28;20483;-69
2024/03/19 10:12:13;;;;;;;2.70;1.23;;;;;;;14.45;84.20;100824.19;5048003;28;20043;-69
2024/03/19 10:14:39;;;;;;;4.03;0.80;;;;;;;14.44;83.52;100822.56;5051807;28;20029;-69
2024/03/19 10:17:09;;;;;;;4.05;0.95;;;;;;;14.38;81.03;100823.97;5051179;28;20306;-69
2024/03/19 10:19:35;;;;;;;1.92;0.73;;;;;;;14.43;82.02;100823.53;5050824;28;20032;-69
2024/03/19 10:22:01;;;;;;;2.05;0.73;;;;;;;14.41;82.11;100828.09;5048194;28;20040;-69
2024/03/19 10:24:26;;;;;;;1.70;0.60;;;;;;;14.47;82.54;100822.22;5050927;28;20029;-69
2024/03/19 10:26:53;;;;;;;1.85;0.85;;;;;;;14.58;81.63;100825.38;5047970;28;20067;-69
2024/03/19 10:29:18;;;;;;;3.63;0.80;;;;;;;14.74;80.22;100821.94;5050694;28;20037;-69
2024/03/19 10:31:48;;;;;;;1.45;0.60;;;;;;;14.68;80.65;100825.19;5046281;28;20060;-68
2024/03/19 10:34:18;;;;;;;2.70;0.57;;;;;;;14.69;77.43;100826.84;5046410;28;20040;-68
2024/03/19 10:36:50;;;;;;;3.97;0.60;;;;;;;14.76;76.61;100827.84;5049745;28;20492;-69
2024/03/19 10:39:16;;;;;;;2.42;1.02;;;;;;;14.69;76.76;100821.59;5040701;28;20033;-69
2024/03/19 10:41:46;;;;;;;2.72;0.57;;;;;;;14.84;77.47;100830.47;5041514;28;20423;-69
2024/03/19 10:44:16;;;;;;;2.90;0.93;;;;;;;14.87;78.44;100822.28;5042125;28;20481;-68
2024/03/19 10:46:43;;;;;;;1.50;0.50;;;;;;;14.87;78.50;100824.06;5042312;28;20044;-68
2024/03/19 10:49:17;;;;;;;2.40;0.70;;;;;;;14.99;78.99;100825.41;5041456;28;20069;-69
2024/03/19 10:51:57;;;;;;;1.73;0.50;;;;;;;14.83;78.09;100823.59;5045555;28;20028;-68
2024/03/19 10:54:26;;;;;;;2.15;0.55;;;;;;;14.63;80.44;100822.28;5035980;28;20037;-69
2024/03/19 10:56:52;;;;;;;3.63;0.40;;;;;;;14.56;80.68;100826.53;5037956;28;20029;-69
2024/03/19 10:59:17;;;;;;;1.55;0.50;;;;;;;14.57;81.04;100828.16;5039566;28;20128;-69
2024/03/19 11:01:47;;;;;;;1.63;0.47;;;;;;;14.57;80.98;100831.59;5041995;28;20195;-68
2024/03/19 11:04:14;;;;;;;1.40;0.68;;;;;;;14.70;81.01;100822.41;5040000;28;20038;-68
2024/03/19 11:06:40;;;;;;;5.82;0.45;;;;;;;14.89;80.80;100828.19;5041976;28;20033;-69
2024/03/19 11:09:18;;;;;;;6.15;0.60;;;;;;;14.98;80.12;100825.56;5039142;28;20539;-69